Surface/Precipitation History
10/30/2014 11:56  to  10/31/2014 11:56
Change End Date:
Date/Time
(MDT)
Sf
Temp Chem Water Layer Surface Precipitation
Sf Sub Frz Factor Pct Depth IcePct Cond Salin Type Intens Accum Rate
10/31/2014 11:55 Dry 61.7F 43F - - - - - 38 mhos 3021 None None - -
10/31/2014 11:45 Dry 60.8F 43F - - - - - 38 mhos 3052 None None - -
10/31/2014 11:40 Dry 59.9F 43F - - - - - 38 mhos 3079 None None - -
10/31/2014 11:35 Dry 59.5F 43F - - - - - 38 mhos 3096 None None - -
10/31/2014 11:25 Dry 58.6F 43F - - - - - 38 mhos 3129 None None - -
10/31/2014 11:25 Dry 58.5F 43F - - - - - 38 mhos 3134 None None - -
10/31/2014 11:15 Dry 57.6F 43F - - - - - 38 mhos 3163 None None - -
10/31/2014 11:10 Dry 57.2F 43F - - - - - 39 mhos 3205 None None - -
10/31/2014 11:05 Dry 56.8F 43F - - - - - 38 mhos 3192 None None - -
10/31/2014 10:55 Dry 56.3F 43F - - - - - 39 mhos 3241 None None - -
10/31/2014 10:55 Dry 56.1F 43F - - - - - 39 mhos 3247 None None - -
10/31/2014 10:45 Dry 54.9F 43F - - - - - 38 mhos 3270 None None - -
10/31/2014 10:40 Dry 54.9F 43F - - - - - 39 mhos 3296 None None - -
10/31/2014 10:35 Dry 54.0F 43F - - - - - 38 mhos 3301 None None - -
10/31/2014 10:25 Dry 52.5F 44F - - - - - 38 mhos 3365 None None - -
Date/Time
(MDT)
Sf
Temp Chem Water Layer Surface Precipitation
Sf Sub Frz Factor Pct Depth IcePct Cond Salin Type Intens Accum Rate
10/31/2014 10:25 Dry 52.0F 43F - - - - - 38 mhos 3385 None None - -
10/31/2014 10:15 Dry 49.5F 44F - - - - - 38 mhos 3468 None None - -
10/31/2014 10:10 Dry 48.6F 44F - - - - - 38 mhos 3511 None None - -
10/31/2014 10:05 Dry 48.6F 44F - - - - - 38 mhos 3511 None None - -
10/31/2014 09:55 Dry 48.0F 44F - - - - - 38 mhos 3505 None None - -
10/31/2014 09:55 Dry 48.0F 44F - - - - - 38 mhos 3505 None None - -
10/31/2014 09:45 Dry 46.8F 44F - - - - - 38 mhos 3537 None None - -
10/31/2014 09:40 Dry 46.2F 44F - - - - - 37 mhos 3487 None None - -
10/31/2014 09:35 Dry 44.8F 44F - - - - - 37 mhos 3528 None None - -
10/31/2014 09:25 Dry 41.9F 44F - - - - - 35 mhos 3513 None None - -
10/31/2014 09:25 Dry 41.5F 44F - - - - - 35 mhos 3503 None None - -
10/31/2014 09:15 Dry 39.6F 44F - - - - - 34 mhos 3532 None None - -
10/31/2014 09:10 Dry 38.8F 44F - - - - - 34 mhos 3515 None None - -
10/31/2014 09:05 Dry 38.7F 44F - - - - - 34 mhos 3499 None None - -
10/31/2014 08:55 Trace Moisture 37.2F 44F - 95 - - - 33 mhos 3486 None None - -
Date/Time
(MDT)
Sf
Temp Chem Water Layer Surface Precipitation
Sf Sub Frz Factor Pct Depth IcePct Cond Salin Type Intens Accum Rate
10/31/2014 08:55 Trace Moisture 37.2F 44F - 95 - - - 33 mhos 3486 None None - -
10/31/2014 08:45 Trace Moisture 36.0F 44F - 95 - - - 33 mhos 3520 None None - -
10/31/2014 08:40 Trace Moisture 35.8F 44F - 95 - - - 33 mhos 3537 None None - -
10/31/2014 08:35 Trace Moisture 35.4F 44F - 95 - - - 33 mhos 3530 None None - -
10/31/2014 08:25 Trace Moisture 34.9F 44F - 95 - - - 33 mhos 3556 None None - -
10/31/2014 08:25 Trace Moisture 34.9F 44F - 95 - - - 33 mhos 3556 None None - -
10/31/2014 08:15 Trace Moisture 34.7F 44F - 95 - - - 33 mhos 3550 None None - -
10/31/2014 08:10 Trace Moisture 34.0F 44F - 95 - - - 33 mhos 3608 None None - -
10/31/2014 08:04 Trace Moisture 34.0F 44F - 95 - - - 33 mhos 3585 None None - -
10/31/2014 07:55 Trace Moisture 33.8F 44F - 95 - - - 33 mhos 3593 None None - -
10/31/2014 07:54 Trace Moisture 33.8F 44F - 95 - - - 33 mhos 3617 None None - -
10/31/2014 07:44 Trace Moisture 34.2F 44F - 95 - - - 33 mhos 3599 None None - -
10/31/2014 07:34 Trace Moisture 34.5F 44F - 95 - - - 33 mhos 3606 None None - -
10/31/2014 07:26 Trace Moisture 34.5F 44F - 95 - - - 33 mhos 3630 None None - -
10/31/2014 07:24 Trace Moisture 34.7F 44F - 95 - - - 33 mhos 3621 None None - -
Date/Time
(MDT)
Sf
Temp Chem Water Layer Surface Precipitation
Sf Sub Frz Factor Pct Depth IcePct Cond Salin Type Intens Accum Rate
10/31/2014 07:14 Trace Moisture 35.1F 44F - 95 - - - 33 mhos 3595 None None - -
10/31/2014 07:04 Trace Moisture 35.4F 44F - 95 - - - 33 mhos 3554 None None - -
10/31/2014 06:55 Trace Moisture 34.7F 44F - 95 - - - 33 mhos 3597 None None - -
10/31/2014 06:54 Trace Moisture 34.7F 44F - 95 - - - 33 mhos 3621 None None - -
10/31/2014 06:44 Trace Moisture 34.9F 44F - 95 - - - 33 mhos 3662 None None - -
10/31/2014 06:34 Trace Moisture 35.1F 44F - 95 - - - 34 mhos 3720 None None - -
10/31/2014 06:26 Dry 35.6F 44F - - - - - 34 mhos 3694 None None - -
10/31/2014 06:24 Dry 35.6F 44F - - - - - 34 mhos 3720 None None - -
10/31/2014 06:14 Dry 36.3F 44F - - - - - 34 mhos 3675 None None - -
10/31/2014 06:04 Dry 36.9F 44F - - - - - 34 mhos 3646 None None - -
10/31/2014 05:55 Dry 37.2F 44F - - - - - 34 mhos 3623 None None - -
10/31/2014 05:54 Dry 37.2F 44F - - - - - 34 mhos 3623 None None - -
10/31/2014 05:44 Dry 37.4F 44F - - - - - 34 mhos 3615 None None - -
10/31/2014 05:34 Dry 37.4F 44F - - - - - 34 mhos 3615 None None - -
10/31/2014 05:25 Dry 37.2F 44F - - - - - 34 mhos 3623 None None - -
Date/Time
(MDT)
Sf
Temp Chem Water Layer Surface Precipitation
Sf Sub Frz Factor Pct Depth IcePct Cond Salin Type Intens Accum Rate
10/31/2014 05:24 Dry 37.2F 44F - - - - - 34 mhos 3632 None None - -
10/31/2014 05:14 Dry 37.6F 44F - - - - - 34 mhos 3581 None None - -
10/31/2014 05:04 Dry 37.4F 44F - - - - - 34 mhos 3590 None None - -
10/31/2014 04:55 Dry 37.2F 44F - - - - - 34 mhos 3573 None None - -
10/31/2014 04:54 Dry 37.2F 44F - - - - - 34 mhos 3573 None None - -
10/31/2014 04:44 Dry 36.7F 44F - - - - - 33 mhos 3558 None None - -
10/31/2014 04:40 Dry 36.3F 44F - - - - - 33 mhos 3575 None None - -
10/31/2014 04:33 Dry 36.5F 44F - - - - - 34 mhos 3616 None None - -
10/31/2014 04:25 Dry 36.7F 44F - - - - - 34 mhos 3607 None None - -
10/31/2014 04:23 Dry 36.9F 44F - - - - - 34 mhos 3599 None None - -
10/31/2014 04:13 Dry 36.9F 44F - - - - - 34 mhos 3574 None None - -
10/31/2014 04:03 Dry 36.7F 44F - - - - - 34 mhos 3632 None None - -
10/31/2014 03:55 Dry 36.7F 44F - - - - - 34 mhos 3607 None None - -
10/31/2014 03:53 Dry 36.7F 44F - - - - - 34 mhos 3607 None None - -
10/31/2014 03:43 Dry 36.9F 44F - - - - - 34 mhos 3624 None None - -
Date/Time
(MDT)
Sf
Temp Chem Water Layer Surface Precipitation
Sf Sub Frz Factor Pct Depth IcePct Cond Salin Type Intens Accum Rate
10/31/2014 03:33 Dry 36.9F 45F - - - - - 34 mhos 3599 None None - -
10/31/2014 03:25 Dry 36.7F 44F - - - - - 34 mhos 3658 None None - -
10/31/2014 03:23 Dry 36.7F 45F - - - - - 34 mhos 3658 None None - -
10/31/2014 03:13 Dry 36.7F 45F - - - - - 34 mhos 3658 None None - -
10/31/2014 03:10 Dry 36.5F 45F - - - - - 34 mhos 3692 None None - -
10/31/2014 03:03 Dry 36.1F 45F - - - - - 35 mhos 3736 None None - -
10/31/2014 02:55 Dry 36.1F 45F - - - - - 35 mhos 3790 None None - -
10/31/2014 02:53 Dry 36.1F 45F - - - - - 35 mhos 3818 None None - -
10/31/2014 02:43 Dry 36.1F 45F - - - - - 36 mhos 3846 None None - -
10/31/2014 02:40 Dry 36.1F 45F - - - - - 36 mhos 3846 None None - -
10/31/2014 02:33 Dry 36.0F 45F - - - - - 36 mhos 3951 None None - -
10/31/2014 02:25 Dry 35.8F 45F - - - - - 36 mhos 3991 None None - -
10/31/2014 02:23 Dry 35.6F 45F - - - - - 37 mhos 4031 None None - -
10/31/2014 02:13 Dry 35.6F 45F - - - - - 37 mhos 4031 None None - -
10/31/2014 02:03 Dry 35.4F 45F - - - - - 37 mhos 4041 None None - -
Date/Time
(MDT)
Sf
Temp Chem Water Layer Surface Precipitation
Sf Sub Frz Factor Pct Depth IcePct Cond Salin Type Intens Accum Rate
10/31/2014 01:56 Dry 35.4F 45F - - - - - 37 mhos 4072 None None - -
10/31/2014 01:53 Dry 35.6F 45F - - - - - 37 mhos 4063 None None - -
10/31/2014 01:43 Dry 35.8F 45F - - - - - 37 mhos 4084 None None - -
10/31/2014 01:33 Dry 35.8F 45F - - - - - 37 mhos 4084 None None - -
10/31/2014 01:25 Dry 35.8F 45F - - - - - 37 mhos 4084 None None - -
10/31/2014 01:23 Dry 36.0F 45F - - - - - 37 mhos 4074 None None - -
10/31/2014 01:13 Dry 36.1F 45F - - - - - 38 mhos 4118 None None - -
10/31/2014 01:03 Dry 36.5F 45F - - - - - 38 mhos 4098 None None - -
10/31/2014 00:55 Dry 36.9F 45F - - - - - 38 mhos 4078 None None - -
10/31/2014 00:53 Dry 36.9F 45F - - - - - 38 mhos 4110 None None - -
10/31/2014 00:42 Dry 37.4F 45F - - - - - 38 mhos 4071 None None - -
10/31/2014 00:32 Dry 37.6F 45F - - - - - 38 mhos 4061 None None - -
10/31/2014 00:26 Dry 37.8F 45F - - - - - 38 mhos 4083 None None - -
10/31/2014 00:22 Dry 37.8F 45F - - - - - 38 mhos 4080 None None - -
10/31/2014 00:12 Dry 38.5F 45F - - - - - 38 mhos 4045 None None - -
Date/Time
(MDT)
Sf
Temp Chem Water Layer Surface Precipitation
Sf Sub Frz Factor Pct Depth IcePct Cond Salin Type Intens Accum Rate
10/31/2014 00:02 Dry 39.0F 45F - - - - - 38 mhos 4007 None None - -
10/30/2014 23:57 Dry 39.2F 45F - - - - - 38 mhos 3997 None None - -
10/30/2014 23:52 Dry 39.4F 45F - - - - - 38 mhos 3988 None None - -
10/30/2014 23:42 Dry 39.6F 45F - - - - - 38 mhos 3979 None None - -
10/30/2014 23:32 Dry 39.9F 45F - - - - - 38 mhos 3951 None None - -
10/30/2014 23:26 Dry 40.3F 45F - - - - - 38 mhos 3933 None None - -
10/30/2014 23:22 Dry 40.3F 45F - - - - - 38 mhos 3933 None None - -
10/30/2014 23:12 Dry 40.5F 45F - - - - - 38 mhos 3923 None None - -
10/30/2014 23:02 Dry 40.8F 45F - - - - - 38 mhos 3905 None None - -
10/30/2014 22:56 Dry 41.0F 45F - - - - - 38 mhos 3896 None None - -
10/30/2014 22:52 Dry 41.0F 45F - - - - - 38 mhos 3896 None None - -
10/30/2014 22:42 Dry 41.0F 45F - - - - - 38 mhos 3896 None None - -
10/30/2014 22:32 Dry 41.0F 45F - - - - - 38 mhos 3896 None None - -
10/30/2014 22:25 Dry 41.0F 45F - - - - - 38 mhos 3896 None None - -
10/30/2014 22:22 Dry 41.0F 45F - - - - - 38 mhos 3896 None None - -
Date/Time
(MDT)
Sf
Temp Chem Water Layer Surface Precipitation
Sf Sub Frz Factor Pct Depth IcePct Cond Salin Type Intens Accum Rate
10/30/2014 22:12 Dry 41.0F 45F - - - - - 38 mhos 3919 None None - -
10/30/2014 22:02 Dry 41.0F 45F - - - - - 38 mhos 3896 None None - -
10/30/2014 21:55 Dry 41.0F 45F - - - - - 38 mhos 3888 None None - -
10/30/2014 21:52 Dry 41.2F 45F - - - - - 38 mhos 3879 None None - -
10/30/2014 21:42 Dry 41.5F 45F - - - - - 38 mhos 3892 None None - -
10/30/2014 21:32 Dry 41.4F 45F - - - - - 38 mhos 3901 None None - -
10/30/2014 21:25 Dry 41.5F 45F - - - - - 38 mhos 3892 None None - -
10/30/2014 21:21 Dry 41.7F 45F - - - - - 38 mhos 3883 None None - -
10/30/2014 21:11 Dry 41.7F 45F - - - - - 38 mhos 3883 None None - -
10/30/2014 21:01 Dry 41.7F 45F - - - - - 39 mhos 3914 None None - -
10/30/2014 20:55 Dry 41.7F 45F - - - - - 39 mhos 3914 None None - -
10/30/2014 20:51 Dry 41.9F 45F - - - - - 39 mhos 3905 None None - -
10/30/2014 20:41 Dry 41.9F 45F - - - - - 39 mhos 3905 None None - -
10/30/2014 20:31 Dry 42.3F 45F - - - - - 39 mhos 3888 None None - -
10/30/2014 20:25 Dry 42.4F 45F - - - - - 39 mhos 3870 None None - -
Date/Time
(MDT)
Sf
Temp Chem Water Layer Surface Precipitation
Sf Sub Frz Factor Pct Depth IcePct Cond Salin Type Intens Accum Rate
10/30/2014 20:21 Dry 42.4F 45F - - - - - 39 mhos 3870 None None - -
10/30/2014 20:11 Dry 43.0F 44F - - - - - 39 mhos 3844 None None - -
10/30/2014 20:01 Dry 43.5F 44F - - - - - 39 mhos 3819 None None - -
10/30/2014 19:55 Dry 43.7F 44F - - - - - 39 mhos 3802 None None - -
10/30/2014 19:51 Dry 43.9F 44F - - - - - 39 mhos 3794 None None - -
10/30/2014 19:41 Dry 44.6F 44F - - - - - 39 mhos 3760 None None - -
10/30/2014 19:31 Dry 44.8F 44F - - - - - 39 mhos 3752 None None - -
10/30/2014 19:26 Dry 45.0F 44F - - - - - 39 mhos 3744 None None - -
10/30/2014 19:21 Dry 45.1F 44F - - - - - 39 mhos 3728 None None - -
10/30/2014 19:11 Dry 45.5F 44F - - - - - 39 mhos 3712 None None - -
10/30/2014 19:01 Dry 46.2F 44F - - - - - 39 mhos 3680 None None - -
10/30/2014 18:55 Dry 46.4F 44F - - - - - 39 mhos 3694 None None - -
10/30/2014 18:51 Dry 46.9F 44F - - - - - 39 mhos 3641 None None - -
10/30/2014 18:41 Dry 47.8F 44F - - - - - 39 mhos 3596 None None - -
10/30/2014 18:40 Dry 48.0F 44F - - - - - 39 mhos 3588 None None - -
Date/Time
(MDT)
Sf
Temp Chem Water Layer Surface Precipitation
Sf Sub Frz Factor Pct Depth IcePct Cond Salin Type Intens Accum Rate
10/30/2014 18:31 Dry 48.7F 44F - - - - - 39 mhos 3551 None None - -
10/30/2014 18:25 Dry 49.1F 44F - - - - - 39 mhos 3537 None None - -
10/30/2014 18:21 Dry 49.6F 44F - - - - - 39 mhos 3515 None None - -
10/30/2014 18:10 Dry 50.5F 44F - - - - - 39 mhos 3473 None None - -
10/30/2014 18:10 Dry 50.5F 44F - - - - - 39 mhos 3473 None None - -
10/30/2014 18:00 Dry 51.3F 44F - - - - - 39 mhos 3439 None None - -
10/30/2014 17:55 Dry 51.8F 43F - - - - - 39 mhos 3418 None None - -
10/30/2014 17:50 Dry 52.2F 43F - - - - - 39 mhos 3405 None None - -
10/30/2014 17:40 Dry 52.9F 43F - - - - - 39 mhos 3376 None None - -
10/30/2014 17:30 Dry 53.6F 43F - - - - - 39 mhos 3346 None None - -
10/30/2014 17:25 Dry 53.8F 43F - - - - - 39 mhos 3340 None None - -
10/30/2014 17:20 Dry 54.0F 43F - - - - - 39 mhos 3327 None None - -
10/30/2014 17:10 Dry 54.9F 43F - - - - - 39 mhos 3296 None None - -
10/30/2014 17:10 Dry 54.9F 43F - - - - - 39 mhos 3296 None None - -
10/30/2014 17:00 Dry 55.6F 43F - - - - - 39 mhos 3265 None None - -
Date/Time
(MDT)
Sf
Temp Chem Water Layer Surface Precipitation
Sf Sub Frz Factor Pct Depth IcePct Cond Salin Type Intens Accum Rate
10/30/2014 16:56 Dry 56.1F 43F - - - - - 38 mhos 3222 None None - -
10/30/2014 16:50 Dry 56.7F 43F - - - - - 38 mhos 3198 None None - -
10/30/2014 16:40 Dry 58.6F 43F - - - - - 38 mhos 3129 None None - -
10/30/2014 16:30 Dry 59.2F 43F - - - - - 38 mhos 3107 None None - -
10/30/2014 16:25 Dry 59.9F 43F - - - - - 38 mhos 3085 None None - -
10/30/2014 16:20 Dry 60.6F 43F - - - - - 38 mhos 3058 None None - -
10/30/2014 16:10 Dry 61.2F 42F - - - - - 38 mhos 3036 None None - -
10/30/2014 16:10 Dry 61.2F 42F - - - - - 38 mhos 3036 None None - -
10/30/2014 16:00 Dry 60.6F 42F - - - - - 38 mhos 3034 None None - -
10/30/2014 15:55 Dry 62.2F 42F - - - - - 38 mhos 2977 None None - -
10/30/2014 15:50 Dry 61.5F 42F - - - - - 38 mhos 3003 None None - -
10/30/2014 15:40 Dry 63.1F 42F - - - - - 38 mhos 2952 None None - -
10/30/2014 15:30 Dry 64.8F 42F - - - - - 38 mhos 2898 None None - -
10/30/2014 15:25 Dry 64.4F 42F - - - - - 38 mhos 2912 None None - -
10/30/2014 15:20 Dry 64.4F 42F - - - - - 38 mhos 2912 None None - -
Date/Time
(MDT)
Sf
Temp Chem Water Layer Surface Precipitation
Sf Sub Frz Factor Pct Depth IcePct Cond Salin Type Intens Accum Rate
10/30/2014 15:10 Dry 65.7F 42F - - - - - 38 mhos 2853 None None - -
10/30/2014 15:09 Dry 65.7F 42F - - - - - 38 mhos 2853 None None - -
10/30/2014 14:59 Dry 64.2F 42F - - - - - 38 mhos 2917 None None - -
10/30/2014 14:55 Dry 64.6F 42F - - - - - 38 mhos 2903 None None - -
10/30/2014 14:49 Dry 63.5F 42F - - - - - 38 mhos 2937 None None - -
10/30/2014 14:39 Dry 63.1F 42F - - - - - 38 mhos 2952 None None - -
10/30/2014 14:31 Dry 64.4F 42F - - - - - 38 mhos 2912 None None - -
10/30/2014 14:29 Dry 64.6F 42F - - - - - 38 mhos 2881 None None - -
10/30/2014 14:19 Dry 65.1F 42F - - - - - 38 mhos 2867 None None - -
10/30/2014 14:09 Dry 63.5F 42F - - - - - 38 mhos 2937 None None - -
10/30/2014 13:59 Dry 64.2F 42F - - - - - 38 mhos 2917 None None - -
10/30/2014 13:49 Dry 63.5F 42F - - - - - 38 mhos 2937 None None - -
10/30/2014 13:39 Dry 62.4F 42F - - - - - 38 mhos 2972 None None - -
10/30/2014 13:29 Dry 62.8F 42F - - - - - 38 mhos 2962 None None - -
10/30/2014 13:19 Dry 63.7F 41F - - - - - 38 mhos 2932 None None - -
Date/Time
(MDT)
Sf
Temp Chem Water Layer Surface Precipitation
Sf Sub Frz Factor Pct Depth IcePct Cond Salin Type Intens Accum Rate
10/30/2014 13:09 Dry 63.3F 41F - - - - - 38 mhos 2969 None None - -
10/30/2014 12:59 Dry 62.1F 41F - - - - - 38 mhos 2982 None None - -
10/30/2014 12:49 Dry 60.1F 41F - - - - - 38 mhos 3074 None None - -
10/30/2014 12:39 Dry 59.2F 41F - - - - - 38 mhos 3107 None None - -
10/30/2014 12:29 Dry 54.7F 41F - - - - - 38 mhos 3251 None None - -
10/30/2014 12:19 Dry 51.6F 41F - - - - - 38 mhos 3372 None None - -
10/30/2014 12:09 Dry 51.4F 41F - - - - - 38 mhos 3379 None None - -
10/30/2014 11:59 Dry 52.7F 41F - - - - - 38 mhos 3327 None None - -
Change End Date:
Copyright © 1998-2005 Surface Systems, Inc.
All Rights Reserved
Send comments about the data to:
SCAN Web ® is a registered trademark of Surface Systems, Inc.
SCAN Web Version 5.6